createdAt,value
2022-09-26T00:01:28.138Z,99.90
2022-09-26T00:03:58.347Z,99.90
2022-09-26T00:06:27.260Z,99.90
2022-09-26T00:08:55.785Z,99.90
2022-09-26T00:11:25.658Z,99.90
2022-09-26T00:13:54.973Z,99.90
2022-09-26T00:16:23.277Z,99.90
2022-09-26T00:18:54.190Z,99.90
2022-09-26T00:21:23.032Z,99.90
2022-09-26T00:23:50.875Z,99.90
2022-09-26T00:26:20.708Z,99.90
2022-09-26T00:28:49.242Z,99.90
2022-09-26T00:31:19.458Z,99.90
2022-09-26T00:33:48.057Z,99.90
2022-09-26T00:36:17.471Z,99.90
2022-09-26T00:38:45.939Z,99.90
2022-09-26T00:41:14.926Z,99.90
2022-09-26T00:43:44.846Z,99.90
2022-09-26T00:46:22.581Z,99.90
2022-09-26T00:48:54.469Z,99.90
2022-09-26T00:51:23.740Z,99.90
2022-09-26T00:53:53.940Z,99.90
2022-09-26T00:56:25.654Z,99.90
2022-09-26T00:58:56.552Z,99.90
2022-09-26T01:01:24.782Z,99.90
2022-09-26T01:03:53.003Z,99.90
2022-09-26T01:06:23.925Z,99.90
2022-09-26T01:08:56.750Z,99.90
2022-09-26T01:11:24.549Z,99.90
2022-09-26T01:13:53.677Z,99.90
2022-09-26T01:16:21.981Z,99.90
2022-09-26T01:18:51.348Z,99.90
2022-09-26T01:22:03.609Z,99.90
2022-09-26T01:24:56.477Z,99.90
2022-09-26T01:27:45.792Z,99.90
2022-09-26T01:30:16.592Z,99.90
2022-09-26T01:33:27.435Z,99.90
2022-09-26T01:36:20.131Z,99.90
2022-09-26T01:39:00.794Z,99.90
2022-09-26T01:41:39.071Z,99.90
2022-09-26T01:44:17.481Z,99.90
2022-09-26T01:46:52.286Z,99.90
2022-09-26T01:49:26.964Z,99.90
2022-09-26T01:52:00.780Z,99.90
2022-09-26T01:54:35.914Z,99.90
2022-09-26T01:57:10.525Z,99.90
2022-09-26T01:59:42.313Z,99.90
2022-09-26T02:02:15.821Z,99.90
2022-09-26T02:04:46.111Z,99.90
2022-09-26T02:07:17.643Z,99.90
2022-09-26T02:09:48.854Z,99.90
2022-09-26T02:12:24.570Z,99.90
2022-09-26T02:14:56.682Z,99.90
2022-09-26T02:17:28.678Z,99.90
2022-09-26T02:19:59.751Z,99.90
2022-09-26T02:22:30.412Z,99.90
2022-09-26T02:24:58.525Z,99.90
2022-09-26T02:27:27.301Z,99.90
2022-09-26T02:29:55.688Z,99.90
2022-09-26T02:32:28.557Z,99.90
2022-09-26T02:34:57.524Z,99.90
2022-09-26T02:37:25.690Z,99.90
2022-09-26T02:39:54.108Z,99.90
2022-09-26T02:42:28.281Z,99.90
2022-09-26T02:45:22.257Z,99.90
2022-09-26T02:48:28.697Z,99.90
2022-09-26T02:51:15.400Z,99.90
2022-09-26T02:54:11.503Z,99.90
2022-09-26T02:56:52.554Z,99.90
2022-09-26T02:59:27.205Z,99.90
2022-09-26T03:02:01.348Z,99.90
2022-09-26T03:04:37.458Z,99.90
2022-09-26T03:07:11.035Z,99.90
2022-09-26T03:09:40.178Z,99.90
2022-09-26T03:12:09.988Z,99.90
2022-09-26T03:14:40.814Z,99.90
2022-09-26T03:17:09.721Z,99.90
2022-09-26T03:19:44.615Z,99.90
2022-09-26T03:22:13.020Z,99.90
2022-09-26T03:24:42.757Z,99.90
2022-09-26T03:27:12.044Z,99.90
2022-09-26T03:29:40.106Z,99.90
2022-09-26T03:32:08.022Z,99.90
2022-09-26T03:34:38.885Z,99.90
2022-09-26T03:37:08.733Z,99.90
2022-09-26T03:39:36.649Z,99.90
2022-09-26T03:42:05.306Z,99.90
2022-09-26T03:44:33.085Z,99.90
2022-09-26T03:47:00.814Z,99.90
2022-09-26T03:49:28.931Z,99.90
2022-09-26T03:51:56.681Z,99.90
2022-09-26T03:54:25.876Z,99.90
2022-09-26T03:56:55.449Z,99.90
2022-09-26T03:59:23.227Z,99.90
2022-09-26T04:01:51.099Z,99.90
2022-09-26T04:04:18.884Z,99.90
2022-09-26T04:06:46.675Z,99.90
2022-09-26T04:09:17.528Z,99.90
2022-09-26T04:11:46.783Z,99.90
2022-09-26T04:14:14.592Z,99.90
2022-09-26T04:16:42.492Z,99.90
2022-09-26T04:19:11.966Z,99.90
2022-09-26T04:21:40.758Z,99.90
2022-09-26T04:24:13.442Z,99.90
2022-09-26T04:26:41.744Z,99.90
2022-09-26T04:29:11.531Z,99.90
2022-09-26T04:31:39.372Z,99.90
2022-09-26T04:34:07.335Z,99.90
2022-09-26T04:36:35.109Z,99.90
2022-09-26T04:39:03.743Z,99.90
2022-09-26T04:41:31.827Z,99.90
2022-09-26T04:44:01.915Z,99.90
2022-09-26T04:46:31.554Z,99.90
2022-09-26T04:49:01.261Z,99.90
2022-09-26T04:51:31.076Z,99.90
2022-09-26T04:53:59.374Z,99.90
2022-09-26T04:56:29.290Z,99.90
2022-09-26T04:58:59.226Z,99.90
2022-09-26T05:01:27.800Z,99.90
2022-09-26T05:03:57.480Z,99.90
2022-09-26T05:06:25.265Z,99.90
2022-09-26T05:08:53.447Z,99.90
2022-09-26T05:11:21.449Z,99.90
2022-09-26T05:13:53.736Z,99.90
2022-09-26T05:16:22.747Z,99.90
2022-09-26T05:18:51.948Z,99.90
2022-09-26T05:21:21.606Z,99.90
2022-09-26T05:24:06.716Z,99.90
2022-09-26T05:26:41.515Z,99.90
2022-09-26T05:29:10.139Z,99.90
2022-09-26T05:31:38.412Z,99.90
2022-09-26T05:34:07.410Z,99.90
2022-09-26T05:36:36.582Z,99.90
2022-09-26T05:39:05.905Z,99.90
2022-09-26T05:41:33.697Z,99.90
2022-09-26T05:44:01.750Z,99.90
2022-09-26T05:46:29.576Z,99.90
2022-09-26T05:48:57.471Z,99.90
2022-09-26T05:51:25.275Z,99.90
2022-09-26T05:53:54.379Z,99.90
2022-09-26T05:56:23.477Z,99.90
2022-09-26T05:58:51.360Z,99.90
2022-09-26T06:01:19.749Z,99.90
2022-09-26T06:03:48.427Z,99.90
2022-09-26T06:06:18.188Z,99.90
2022-09-26T06:08:47.330Z,99.90
2022-09-26T06:11:18.129Z,99.90
2022-09-26T06:13:46.664Z,99.90
2022-09-26T06:16:18.202Z,99.90
2022-09-26T06:18:47.441Z,99.90
2022-09-26T06:21:17.036Z,99.90
2022-09-26T06:23:45.380Z,99.90
2022-09-26T06:26:19.914Z,99.90
2022-09-26T06:28:49.876Z,99.90
2022-09-26T06:31:19.736Z,99.90
2022-09-26T06:33:51.262Z,99.90
2022-09-26T06:36:18.982Z,99.90
2022-09-26T06:38:46.736Z,99.90
2022-09-26T06:41:16.337Z,99.90
2022-09-26T06:43:44.902Z,99.90
2022-09-26T06:46:13.153Z,97.90
2022-09-26T06:48:41.099Z,96.70
2022-09-26T06:51:13.802Z,96.80
2022-09-26T06:53:42.533Z,96.20
2022-09-26T06:56:10.916Z,96.10
2022-09-26T06:58:40.166Z,95.60
2022-09-26T07:01:08.360Z,94.90
2022-09-26T07:03:37.863Z,93.40
2022-09-26T07:06:07.446Z,93.40
2022-09-26T07:09:00.939Z,92.40
2022-09-26T07:11:56.627Z,90.90
2022-09-26T07:14:16.809Z,89.90
2022-09-26T07:16:44.638Z,89.40
2022-09-26T07:19:13.259Z,88.70
2022-09-26T07:21:41.115Z,87.60
2022-09-26T07:24:13.883Z,84.80
2022-09-26T07:26:41.841Z,85.90
2022-09-26T07:29:09.868Z,84.40
2022-09-26T07:31:39.255Z,83.50
2022-09-26T07:34:08.504Z,82.70
2022-09-26T07:36:36.297Z,80.80
2022-09-26T07:39:04.125Z,80.80
2022-09-26T07:41:31.886Z,81.10
2022-09-26T07:47:06.722Z,81.10
2022-09-26T07:49:52.046Z,77.90
2022-09-26T07:52:22.478Z,78.40
2022-09-26T07:54:50.494Z,76.30
2022-09-26T07:57:20.067Z,75.20
2022-09-26T07:59:49.708Z,75.90
2022-09-26T08:02:26.117Z,76.60
2022-09-26T08:04:58.960Z,74.20
2022-09-26T08:07:28.114Z,74.50
2022-09-26T08:09:56.020Z,73.30
2022-09-26T08:12:23.965Z,74.50
2022-09-26T08:14:52.931Z,74.80
2022-09-26T08:19:51.536Z,70.30
2022-09-26T08:22:19.429Z,71.80
2022-09-26T08:24:50.237Z,69.50
2022-09-26T08:27:18.081Z,70.70
2022-09-26T08:29:48.382Z,72.10
2022-09-26T08:32:16.290Z,71.20
2022-09-26T08:34:44.357Z,72.60
2022-09-26T08:37:13.561Z,73.60
2022-09-26T08:39:41.545Z,71.00
2022-09-26T08:42:23.947Z,70.10
2022-09-26T08:45:27.170Z,69.10
2022-09-26T08:48:04.769Z,68.60
2022-09-26T08:50:40.791Z,70.70
2022-09-26T08:53:13.500Z,69.90
2022-09-26T08:55:44.019Z,69.30
2022-09-26T08:58:17.777Z,70.00
2022-09-26T09:00:46.989Z,69.10
2022-09-26T09:03:25.504Z,68.20
2022-09-26T09:05:56.909Z,68.50
2022-09-26T09:08:32.100Z,66.70
2022-09-26T09:11:10.305Z,67.20
2022-09-26T09:13:55.298Z,67.40
2022-09-26T09:16:36.715Z,64.60
2022-09-26T09:19:13.284Z,65.20
2022-09-26T09:21:51.006Z,66.00
2022-09-26T09:24:31.122Z,66.80
2022-09-26T09:30:17.162Z,65.00
2022-09-26T09:32:50.871Z,64.60
2022-09-26T09:35:24.723Z,64.00
2022-09-26T09:37:54.677Z,63.20
2022-09-26T09:40:28.730Z,63.60
2022-09-26T09:43:02.660Z,63.30
2022-09-26T09:45:36.042Z,62.20
2022-09-26T09:48:04.448Z,59.60
2022-09-26T09:50:41.481Z,59.70
2022-09-26T09:53:22.747Z,58.80
2022-09-26T09:56:02.562Z,57.90
2022-09-26T09:58:58.437Z,58.90
2022-09-26T10:01:31.721Z,57.00
2022-09-26T10:04:06.204Z,58.40
2022-09-26T10:06:44.397Z,58.20
2022-09-26T10:09:35.989Z,55.30
2022-09-26T10:12:16.611Z,57.50
2022-09-26T10:14:50.344Z,56.60
2022-09-26T10:17:20.684Z,55.40
2022-09-26T10:19:49.172Z,54.70
2022-09-26T10:22:25.190Z,55.30
2022-09-26T10:25:00.216Z,51.60
2022-09-26T10:27:37.684Z,54.30
2022-09-26T10:30:21.255Z,52.90
2022-09-26T10:32:56.531Z,54.70
2022-09-26T10:35:26.382Z,51.50
2022-09-26T10:38:01.029Z,53.30
2022-09-26T10:40:45.283Z,55.60
2022-09-26T10:43:28.573Z,55.40
2022-09-26T10:46:02.985Z,55.70
2022-09-26T10:48:48.039Z,57.70
2022-09-26T10:51:21.783Z,59.20
2022-09-26T10:53:52.772Z,58.50
2022-09-26T10:56:26.546Z,59.10
2022-09-26T10:59:00.584Z,59.90
2022-09-26T11:01:31.286Z,58.00
2022-09-26T11:04:14.334Z,59.70
2022-09-26T11:06:44.092Z,60.20
2022-09-26T11:09:13.968Z,57.90
2022-09-26T11:11:43.328Z,58.00
2022-09-26T11:14:28.094Z,58.30
2022-09-26T11:16:57.602Z,56.80
2022-09-26T11:19:38.640Z,57.20
2022-09-26T11:22:14.485Z,56.20
2022-09-26T11:24:48.569Z,55.50
2022-09-26T11:27:24.341Z,53.70
2022-09-26T11:29:57.127Z,53.20
2022-09-26T11:32:30.086Z,52.70
2022-09-26T11:35:03.143Z,53.00
2022-09-26T11:38:05.430Z,55.00
2022-09-26T11:40:44.274Z,54.20
2022-09-26T11:43:28.747Z,51.70
2022-09-26T11:46:08.474Z,51.40
2022-09-26T11:48:49.336Z,52.10
2022-09-26T11:51:33.180Z,51.60
2022-09-26T11:54:19.413Z,50.60
2022-09-26T11:56:56.653Z,49.80
2022-09-26T11:59:56.721Z,49.20
2022-09-26T12:02:41.907Z,47.80
2022-09-26T12:05:27.241Z,48.80
2022-09-26T12:08:06.088Z,49.10
2022-09-26T12:10:41.661Z,48.80
2022-09-26T12:13:22.286Z,49.20
2022-09-26T12:15:56.090Z,48.50
2022-09-26T12:18:34.720Z,50.60
2022-09-26T12:21:21.411Z,49.10
2022-09-26T12:23:53.819Z,47.20
2022-09-26T12:26:31.803Z,47.00
2022-09-26T12:29:25.943Z,48.40
2022-09-26T12:32:07.827Z,49.90
2022-09-26T12:34:51.132Z,50.70
2022-09-26T12:37:41.070Z,51.10
2022-09-26T12:40:26.778Z,52.10
2022-09-26T12:43:21.228Z,54.60
2022-09-26T12:46:03.904Z,60.20
2022-09-26T12:48:44.759Z,64.30
2022-09-26T12:51:28.544Z,64.20
2022-09-26T12:54:22.485Z,64.80
2022-09-26T12:56:54.640Z,64.90
2022-09-26T12:59:43.160Z,64.60
2022-09-26T13:02:33.540Z,63.70
2022-09-26T13:05:21.025Z,61.30
2022-09-26T13:07:56.756Z,63.20
2022-09-26T13:10:34.369Z,64.40
2022-09-26T13:13:24.017Z,63.70
2022-09-26T13:16:08.017Z,64.80
2022-09-26T13:18:44.677Z,64.50
2022-09-26T13:21:15.134Z,64.50
2022-09-26T13:23:52.498Z,65.30
2022-09-26T13:26:27.370Z,65.40
2022-09-26T13:29:16.698Z,65.20
2022-09-26T13:31:48.793Z,66.00
2022-09-26T13:34:21.470Z,66.00
2022-09-26T13:36:50.279Z,62.60
2022-09-26T13:39:30.129Z,58.20
2022-09-26T13:42:03.690Z,58.60
2022-09-26T13:44:48.956Z,57.80
2022-09-26T13:47:27.990Z,57.00
2022-09-26T13:50:01.170Z,57.70
2022-09-26T13:52:40.322Z,56.70
2022-09-26T13:55:19.363Z,56.70
2022-09-26T13:57:52.296Z,57.30
2022-09-26T14:00:49.103Z,57.50
2022-09-26T14:03:37.890Z,57.60
2022-09-26T14:06:19.081Z,58.40
2022-09-26T14:09:26.506Z,58.60
2022-09-26T14:12:21.630Z,55.70
2022-09-26T14:15:08.684Z,57.60
2022-09-26T14:20:31.134Z,56.20
2022-09-26T14:23:01.974Z,56.70
2022-09-26T14:26:05.296Z,56.70
2022-09-26T14:28:36.037Z,57.10
2022-09-26T14:31:42.589Z,58.10
2022-09-26T14:34:17.426Z,60.00
2022-09-26T14:36:46.451Z,63.40
2022-09-26T14:39:35.582Z,64.10
2022-09-26T14:42:15.396Z,66.20
2022-09-26T14:44:52.945Z,67.40
2022-09-26T14:47:20.997Z,68.10
2022-09-26T14:49:56.247Z,67.30
2022-09-26T14:52:25.324Z,65.40
2022-09-26T14:55:01.043Z,65.70
2022-09-26T14:57:33.084Z,66.40
2022-09-26T15:00:03.724Z,66.90
2022-09-26T15:02:42.171Z,69.20
2022-09-26T15:05:23.318Z,69.20
2022-09-26T15:07:52.910Z,69.10
2022-09-26T15:10:27.280Z,68.80
2022-09-26T15:13:01.775Z,68.10
2022-09-26T15:15:43.961Z,69.40
2022-09-26T15:18:18.456Z,69.40
2022-09-26T15:20:51.920Z,69.40
2022-09-26T15:23:24.696Z,69.00
2022-09-26T15:25:54.122Z,69.70
2022-09-26T15:28:24.483Z,69.60
2022-09-26T15:31:25.061Z,69.00
2022-09-26T15:33:59.576Z,66.80
2022-09-26T15:36:32.772Z,67.20
2022-09-26T15:39:01.397Z,66.10
2022-09-26T15:41:46.568Z,65.70
2022-09-26T15:44:23.495Z,65.50
2022-09-26T15:46:52.826Z,66.40
2022-09-26T15:49:22.295Z,67.60
2022-09-26T15:51:54.260Z,67.70
2022-09-26T15:54:27.829Z,68.00
2022-09-26T15:56:58.556Z,67.90
2022-09-26T15:59:30.278Z,68.40
2022-09-26T16:02:01.065Z,68.50
2022-09-26T16:04:30.446Z,68.90
2022-09-26T16:07:03.500Z,69.10
2022-09-26T16:09:33.251Z,69.70
2022-09-26T16:12:03.010Z,69.90
2022-09-26T16:14:37.681Z,70.10
2022-09-26T16:17:22.401Z,71.00
2022-09-26T16:19:53.260Z,72.80
2022-09-26T16:22:44.465Z,74.70
2022-09-26T16:25:32.487Z,74.60
2022-09-26T16:28:17.657Z,75.40
2022-09-26T16:30:51.769Z,76.60
2022-09-26T16:33:34.105Z,76.50
2022-09-26T16:36:15.105Z,76.30
2022-09-26T16:38:43.003Z,76.80
2022-09-26T16:41:59.398Z,76.80
2022-09-26T16:44:27.797Z,77.20
2022-09-26T16:46:58.781Z,77.60
2022-09-26T16:49:34.287Z,78.00
2022-09-26T16:52:27.012Z,77.50
2022-09-26T16:54:55.989Z,76.20
2022-09-26T16:57:26.618Z,76.00
2022-09-26T17:00:14.836Z,74.70
2022-09-26T17:02:42.271Z,74.00
2022-09-26T17:05:18.338Z,72.20
2022-09-26T17:07:47.453Z,71.80
2022-09-26T17:10:16.014Z,70.70
2022-09-26T17:12:44.926Z,70.00
2022-09-26T17:15:19.750Z,69.30
2022-09-26T17:17:48.256Z,69.00
2022-09-26T17:20:17.515Z,68.90
2022-09-26T17:22:45.401Z,68.00
2022-09-26T17:25:13.945Z,67.50
2022-09-26T17:27:43.009Z,67.50
2022-09-26T17:30:17.082Z,66.80
2022-09-26T17:32:49.628Z,66.30
2022-09-26T17:35:25.286Z,66.40
2022-09-26T17:37:53.332Z,65.40
2022-09-26T17:40:23.966Z,65.90
2022-09-26T17:42:55.173Z,65.30
2022-09-26T17:45:28.513Z,65.40
2022-09-26T17:47:58.057Z,65.80
2022-09-26T17:50:30.000Z,65.10
2022-09-26T17:52:58.842Z,65.10
2022-09-26T17:55:27.061Z,65.30
2022-09-26T17:57:55.569Z,65.40
2022-09-26T18:00:23.373Z,64.90
2022-09-26T18:02:55.670Z,64.70
2022-09-26T18:05:26.284Z,64.70
2022-09-26T18:07:59.176Z,65.20
2022-09-26T18:10:30.351Z,65.20
2022-09-26T18:13:01.923Z,65.20
2022-09-26T18:15:30.642Z,64.50
2022-09-26T18:18:00.258Z,65.40
2022-09-26T18:20:37.004Z,66.20
2022-09-26T18:23:07.277Z,66.20
2022-09-26T18:25:37.145Z,66.10
2022-09-26T18:28:12.004Z,66.00
2022-09-26T18:30:42.074Z,66.10
2022-09-26T18:33:14.353Z,66.10
2022-09-26T18:35:44.051Z,66.50
2022-09-26T18:38:13.518Z,66.90
2022-09-26T18:40:45.588Z,67.10
2022-09-26T18:43:18.079Z,66.30
2022-09-26T18:45:45.991Z,66.10
2022-09-26T18:48:22.253Z,66.20
2022-09-26T18:50:50.440Z,65.90
2022-09-26T18:53:21.331Z,66.00
2022-09-26T18:56:07.127Z,66.10
2022-09-26T18:58:36.116Z,65.60
2022-09-26T19:01:06.948Z,65.50
2022-09-26T19:03:37.169Z,65.30
2022-09-26T19:06:08.051Z,64.70
2022-09-26T19:08:39.167Z,64.90
2022-09-26T19:11:13.115Z,65.00
2022-09-26T19:13:40.999Z,65.50
2022-09-26T19:16:09.469Z,65.20
2022-09-26T19:18:38.415Z,65.30
2022-09-26T19:21:13.690Z,65.40
2022-09-26T19:23:43.156Z,65.00
2022-09-26T19:26:18.781Z,65.00
2022-09-26T19:28:46.544Z,64.80
2022-09-26T19:31:14.365Z,65.50
2022-09-26T19:33:46.547Z,64.80
2022-09-26T19:36:16.985Z,65.90
2022-09-26T19:38:46.456Z,65.50
2022-09-26T19:41:14.303Z,65.20
2022-09-26T19:43:42.125Z,65.30
2022-09-26T19:46:23.869Z,65.40
2022-09-26T19:48:51.993Z,65.90
2022-09-26T19:51:19.838Z,66.10
2022-09-26T19:53:48.957Z,66.20
2022-09-26T19:56:16.731Z,66.10
2022-09-26T19:58:46.193Z,66.30
2022-09-26T20:01:16.781Z,66.60
2022-09-26T20:03:44.938Z,65.80
2022-09-26T20:06:15.030Z,66.10
2022-09-26T20:08:43.005Z,65.90
2022-09-26T20:11:13.469Z,66.00
2022-09-26T20:13:58.845Z,66.30
2022-09-26T20:16:26.923Z,66.10
2022-09-26T20:18:55.815Z,66.00
2022-09-26T20:21:28.289Z,66.80
2022-09-26T20:23:57.013Z,68.30
2022-09-26T20:26:26.767Z,69.20
2022-09-26T20:28:54.520Z,70.30
2022-09-26T20:31:24.098Z,72.00
2022-09-26T20:33:52.540Z,73.00
2022-09-26T20:36:25.147Z,75.90
2022-09-26T20:38:55.677Z,76.80
2022-09-26T20:41:28.043Z,78.30
2022-09-26T20:44:01.871Z,79.20
2022-09-26T20:46:34.621Z,80.40
2022-09-26T20:49:05.873Z,81.20
2022-09-26T20:51:35.041Z,81.90
2022-09-26T20:54:03.327Z,83.00
2022-09-26T20:56:32.661Z,84.00
2022-09-26T20:59:00.451Z,84.50
2022-09-26T21:01:28.816Z,85.10
2022-09-26T21:03:57.235Z,84.00
2022-09-26T21:06:28.638Z,84.60
2022-09-26T21:08:57.232Z,84.90
2022-09-26T21:11:25.139Z,81.70
2022-09-26T21:13:54.215Z,82.50
2022-09-26T21:16:22.801Z,82.30
2022-09-26T21:18:52.772Z,79.70
2022-09-26T21:21:24.010Z,80.50
2022-09-26T21:23:53.295Z,75.70
2022-09-26T21:26:22.787Z,74.10
2022-09-26T21:28:51.563Z,74.00
2022-09-26T21:31:27.076Z,73.50
2022-09-26T21:33:56.254Z,73.00
2022-09-26T21:36:24.829Z,73.50
2022-09-26T21:38:54.676Z,74.30
2022-09-26T21:41:23.034Z,76.00
2022-09-26T21:43:56.168Z,76.70
2022-09-26T21:46:27.337Z,79.10
2022-09-26T21:48:55.669Z,78.70
2022-09-26T21:51:28.024Z,80.10
2022-09-26T21:54:00.455Z,81.20
2022-09-26T21:56:32.782Z,82.70
2022-09-26T21:59:00.610Z,83.80
2022-09-26T22:01:29.859Z,85.40
2022-09-26T22:03:58.422Z,86.30
2022-09-26T22:06:26.198Z,86.90
2022-09-26T22:08:54.350Z,88.70
2022-09-26T22:11:22.125Z,90.40
2022-09-26T22:13:49.858Z,92.10
2022-09-26T22:16:18.611Z,92.70
2022-09-26T22:18:47.710Z,94.00
2022-09-26T22:21:15.474Z,94.60
2022-09-26T22:23:43.356Z,95.90
2022-09-26T22:26:11.440Z,96.40
2022-09-26T22:28:39.780Z,97.10
2022-09-26T22:31:07.968Z,96.80
2022-09-26T22:33:35.806Z,93.10
2022-09-26T22:36:05.729Z,93.50
2022-09-26T22:38:34.349Z,95.30
2022-09-26T22:41:03.995Z,96.30
2022-09-26T22:43:32.674Z,95.30
2022-09-26T22:46:04.505Z,95.40
2022-09-26T22:48:33.798Z,94.90
2022-09-26T22:51:01.965Z,94.90
2022-09-26T22:53:31.721Z,92.70
2022-09-26T22:56:04.974Z,92.70
2022-09-26T22:58:36.476Z,92.70
2022-09-26T23:01:04.828Z,93.40
2022-09-26T23:03:33.135Z,93.80
2022-09-26T23:06:01.441Z,93.60
2022-09-26T23:08:31.043Z,92.80
2022-09-26T23:10:58.984Z,92.30
2022-09-26T23:13:27.482Z,93.50
2022-09-26T23:15:55.600Z,93.10
2022-09-26T23:18:23.522Z,93.00
2022-09-26T23:20:52.661Z,91.90
2022-09-26T23:23:20.398Z,91.30
2022-09-26T23:25:51.131Z,91.90
2022-09-26T23:28:19.182Z,91.20
2022-09-26T23:30:47.032Z,91.20
2022-09-26T23:33:14.788Z,89.70
2022-09-26T23:35:42.666Z,90.90
2022-09-26T23:38:10.438Z,90.90
2022-09-26T23:40:38.545Z,91.50
2022-09-26T23:43:08.091Z,91.80
2022-09-26T23:45:37.236Z,92.00
2022-09-26T23:48:05.313Z,89.60
2022-09-26T23:50:33.113Z,91.20
2022-09-26T23:53:05.725Z,90.40
2022-09-26T23:55:34.380Z,90.00
2022-09-26T23:58:02.539Z,91.00
